Virgil, KS (66870)

2:58 PM CDT on July 29, 2016 (GMT -0500)
Toronto, KS | | Change Station

Elev 971 ft 37.80 °N, 95.95 °W | Updated 8 minutes ago

Scattered Clouds
Scattered Clouds
86.3 °F
Feels Like 92 °F
N
0.0
Wind Variable Wind from WNW
Gusts 1.0 mph

Today
High -- | Low -- °F
--% Chance of Precip.
Yesterday
High -- | Low -- °F
Precip. -- in
Pressure 29.97 in
Visibility 10.0 miles
Clouds Scattered Clouds 4100 ft
Scattered Clouds 8500 ft
Heat Index 92 °F
Dew Point 72 °F
Humidity 62%
Rainfall 0.00 in
Snow Depth Not available.
6:25 AM 8:35 PM
Waning Crescent, 19% visible
METAR KEMP 291953Z AUTO 34006KT 10SM SCT041 SCT085 30/19 A3000 RMK AO2 SLP148 T03000189
Pressure 29.97 in
Visibility 10.0 miles
Clouds Scattered Clouds 4100 ft
Scattered Clouds 8500 ft
Heat Index 92 °F
Dew Point 72 °F
Humidity 62%
Rainfall 0.00 in
Snow Depth Not available.
6:25 AM 8:35 PM
Waning Crescent, 19% visible
METAR KEMP 291953Z AUTO 34006KT 10SM SCT041 SCT085 30/19 A3000 RMK AO2 SLP148 T03000189

10-Day Weather Forecast

Almanac

Astronomy

Jul. 29, 2016 Rise Set
Actual Time
Civil Twilight
Nautical Twilight
Astronomical Twilight
Moon
Length of Visible Light
Length of Day
Tomorrow will be .
, % of the Moon is Illuminated

Today's Extremes

State Highs State Lows

Community

WunderPhotos

Upload Photos

1,928,401 photos uploaded!

WunderBlog® & News

Nearby

Air Quality

  Air Quality AQ Index Pollutant
Not available.

Snow Depth

Station Depth Elevation

Earthquake Activity

City Distance Mag. Time & Date
Minimum magnitude displayed is 2.5.

Coastal Water Temperatures

Place Temperature

Stations

Nearby Weather Stations

Station Location Temp. Windchill Dew Point Humidity Wind Precip. Elev Updated Type
                   

Watches & Warnings

There are currently no watches in effect.